TMR weather

Aguenar – Hadj Bey Akhamok Airport
Tamanrasset, Tamanghasset Province, Algeria

Public forecast

Using degrees Celsius for public forecast. Weather courtesy of forecast.io.

METAR (pilot weather report)

Retrieved 2019/05/21 11:30 UTC (28 minutes ago):

DAAT 211130Z 29012KT 240V320 0600 HZ SCT046TCU SCT100 31/01 Q1017

TAF (pilot weather forecast)

Retrieved 2019/05/21 06:00 UTC (6 hours ago):

TAF DAAT 210500Z 2106/2206 28012KT 1500 HZ FEW046 SCT100 TEMPO 2106/2110 0300 BECMG 2109/2113 28020KT 4000 DRSA PROB40 TEMPO 2112/2116 28020G30KT 0800 BLSA BECMG 2117/2120 34010KT 6000 NSW